createdAt,value
2019-05-10T00:00:14.453Z,95.50
2019-05-10T00:03:01.100Z,95.40
2019-05-10T00:05:48.211Z,95.30
2019-05-10T00:08:34.612Z,95.50
2019-05-10T00:11:05.155Z,95.70
2019-05-10T00:13:36.308Z,96.20
2019-05-10T00:16:04.899Z,95.90
2019-05-10T00:18:33.341Z,96.30
2019-05-10T00:21:02.166Z,96.60
2019-05-10T00:23:30.641Z,96.80
2019-05-10T00:25:59.173Z,96.70
2019-05-10T00:28:27.621Z,96.40
2019-05-10T00:30:56.077Z,96.30
2019-05-10T00:33:24.520Z,95.90
2019-05-10T00:35:52.969Z,96.00
2019-05-10T00:38:21.740Z,96.30
2019-05-10T00:40:50.200Z,96.20
2019-05-10T00:43:18.653Z,96.20
2019-05-10T00:45:47.089Z,96.10
2019-05-10T00:48:15.561Z,95.90
2019-05-10T00:50:44.113Z,96.00
2019-05-10T00:53:12.584Z,95.90
2019-05-10T00:55:41.080Z,95.90
2019-05-10T00:58:09.556Z,95.80
2019-05-10T01:00:38.005Z,95.40
2019-05-10T01:03:06.488Z,95.60
2019-05-10T01:05:34.938Z,95.40
2019-05-10T01:08:03.380Z,95.50
2019-05-10T01:10:32.201Z,95.30
2019-05-10T01:13:00.734Z,95.50
2019-05-10T01:15:29.194Z,95.70
2019-05-10T01:17:57.658Z,96.00
2019-05-10T01:20:26.100Z,96.00
2019-05-10T01:22:54.580Z,96.10
2019-05-10T01:25:34.730Z,96.40
2019-05-10T01:27:53.301Z,96.60
2019-05-10T01:30:21.980Z,96.60
2019-05-10T01:32:50.628Z,96.70
2019-05-10T01:35:19.088Z,96.70
2019-05-10T01:37:47.593Z,97.00
2019-05-10T01:40:16.443Z,97.10
2019-05-10T01:42:44.890Z,97.40
2019-05-10T01:45:14.111Z,97.40
2019-05-10T01:47:42.619Z,97.60
2019-05-10T01:50:11.448Z,97.90
2019-05-10T01:52:39.892Z,98.10
2019-05-10T01:55:08.480Z,98.20
2019-05-10T01:57:36.940Z,98.30
2019-05-10T02:00:10.220Z,98.30
2019-05-10T02:02:38.690Z,98.50
2019-05-10T02:05:07.454Z,98.80
2019-05-10T02:07:35.981Z,98.80
2019-05-10T02:10:09.799Z,99.30
2019-05-10T02:12:38.243Z,99.20
2019-05-10T02:15:07.976Z,99.20
2019-05-10T02:17:36.417Z,99.30
2019-05-10T02:20:06.503Z,99.40
2019-05-10T02:22:34.957Z,99.50
2019-05-10T02:25:03.983Z,99.70
2019-05-10T02:27:32.604Z,99.60
2019-05-10T02:30:01.048Z,99.50
2019-05-10T02:32:29.573Z,99.40
2019-05-10T02:34:58.042Z,99.40
2019-05-10T02:37:26.564Z,99.40
2019-05-10T02:39:55.115Z,99.40
2019-05-10T02:42:23.565Z,99.60
2019-05-10T02:44:52.017Z,99.70
2019-05-10T02:47:20.472Z,99.80
2019-05-10T02:49:48.910Z,99.90
2019-05-10T02:52:17.722Z,99.90
2019-05-10T02:54:46.460Z,99.90
2019-05-10T02:57:15.668Z,99.80
2019-05-10T02:59:44.856Z,99.60
2019-05-10T03:02:14.653Z,99.40
2019-05-10T03:04:46.058Z,99.10
2019-05-10T03:07:18.070Z,99.20
2019-05-10T03:09:49.257Z,99.10
2019-05-10T03:12:23.857Z,99.50
2019-05-10T03:14:57.768Z,99.90
2019-05-10T03:17:27.855Z,99.90
2019-05-10T03:19:58.373Z,99.90
2019-05-10T03:22:26.916Z,99.90
2019-05-10T03:24:55.524Z,99.90
2019-05-10T03:27:24.183Z,99.90
2019-05-10T03:29:52.718Z,99.90
2019-05-10T03:32:21.325Z,99.90
2019-05-10T03:34:49.849Z,99.90
2019-05-10T03:37:18.823Z,99.90
2019-05-10T03:39:47.417Z,99.90
2019-05-10T03:42:15.938Z,99.90
2019-05-10T03:44:44.537Z,99.90
2019-05-10T03:47:13.126Z,99.90
2019-05-10T03:49:41.561Z,99.90
2019-05-10T03:52:10.092Z,99.90
2019-05-10T03:54:38.539Z,99.90
2019-05-10T03:57:13.780Z,99.90
2019-05-10T03:59:37.224Z,99.90
2019-05-10T04:02:05.682Z,99.90
2019-05-10T04:04:34.700Z,99.90
2019-05-10T04:07:03.195Z,99.90
2019-05-10T04:09:31.705Z,99.90
2019-05-10T04:12:00.301Z,99.90
2019-05-10T04:14:28.742Z,99.90
2019-05-10T04:16:57.197Z,99.90
2019-05-10T04:19:25.745Z,99.90
2019-05-10T04:21:54.251Z,99.90
2019-05-10T04:24:22.703Z,99.90
2019-05-10T04:26:51.228Z,99.90
2019-05-10T04:29:19.779Z,99.90
2019-05-10T04:31:48.279Z,99.90
2019-05-10T04:34:16.739Z,99.90
2019-05-10T04:36:45.178Z,99.90
2019-05-10T04:39:13.694Z,99.90
2019-05-10T04:41:42.167Z,99.90
2019-05-10T04:44:10.676Z,99.80
2019-05-10T04:46:39.157Z,99.20
2019-05-10T04:49:07.611Z,99.20
2019-05-10T04:51:36.057Z,98.90
2019-05-10T04:54:04.593Z,98.80
2019-05-10T04:56:33.112Z,98.50
2019-05-10T04:59:01.617Z,98.40
2019-05-10T05:01:30.145Z,97.50
2019-05-10T05:03:58.598Z,97.30
2019-05-10T05:06:27.184Z,97.20
2019-05-10T05:08:55.645Z,96.90
2019-05-10T05:11:24.176Z,96.80
2019-05-10T05:13:52.628Z,96.60
2019-05-10T05:16:21.272Z,96.60
2019-05-10T05:18:49.737Z,96.20
2019-05-10T05:21:18.201Z,95.80
2019-05-10T05:23:46.650Z,95.30
2019-05-10T05:26:15.106Z,95.50
2019-05-10T05:28:43.580Z,95.40
2019-05-10T05:31:12.040Z,95.60
2019-05-10T05:33:40.566Z,95.70
2019-05-10T05:36:09.047Z,95.40
2019-05-10T05:38:40.588Z,95.00
2019-05-10T05:41:07.687Z,94.90
2019-05-10T05:43:45.711Z,94.80
2019-05-10T05:46:06.392Z,94.60
2019-05-10T05:48:40.346Z,94.30
2019-05-10T05:51:05.063Z,94.20
2019-05-10T05:53:35.859Z,94.40
2019-05-10T05:56:12.184Z,94.20
2019-05-10T05:58:38.141Z,94.00
2019-05-10T06:01:05.257Z,94.00
2019-05-10T06:03:33.758Z,94.20
2019-05-10T06:06:02.218Z,94.20
2019-05-10T06:08:30.749Z,94.20
2019-05-10T06:11:00.094Z,94.30
2019-05-10T06:13:30.753Z,93.90
2019-05-10T06:16:00.215Z,93.90
2019-05-10T06:18:29.351Z,93.90
2019-05-10T06:20:57.798Z,94.20
2019-05-10T06:23:29.048Z,94.60
2019-05-10T06:25:56.432Z,94.80
2019-05-10T06:28:28.865Z,95.00
2019-05-10T06:30:55.080Z,95.00
2019-05-10T06:33:23.591Z,94.80
2019-05-10T06:35:52.049Z,94.40
2019-05-10T06:38:20.491Z,94.10
2019-05-10T06:40:48.978Z,94.70
2019-05-10T06:43:17.494Z,95.10
2019-05-10T06:45:51.773Z,94.70
2019-05-10T06:48:26.045Z,93.80
2019-05-10T06:50:46.358Z,93.60
2019-05-10T06:53:14.869Z,93.50
2019-05-10T06:55:43.323Z,93.70
2019-05-10T06:58:11.783Z,94.00
2019-05-10T07:00:44.725Z,93.60
2019-05-10T07:03:10.835Z,94.00
2019-05-10T07:05:39.329Z,94.50
2019-05-10T07:08:16.398Z,94.60
2019-05-10T07:10:38.058Z,94.60
2019-05-10T07:13:06.835Z,94.50
2019-05-10T07:15:41.502Z,94.60
2019-05-10T07:18:05.700Z,94.80
2019-05-10T07:20:34.231Z,94.90
2019-05-10T07:23:05.991Z,94.80
2019-05-10T07:25:37.936Z,95.10
2019-05-10T07:28:03.105Z,95.30
2019-05-10T07:30:41.092Z,95.20
2019-05-10T07:33:08.090Z,95.00
2019-05-10T07:35:38.595Z,96.50
2019-05-10T07:38:06.842Z,96.00
2019-05-10T07:40:35.373Z,95.80
2019-05-10T07:43:03.953Z,95.20
2019-05-10T07:45:32.465Z,95.20
2019-05-10T07:48:02.407Z,95.70
2019-05-10T07:50:31.090Z,94.70
2019-05-10T07:52:59.599Z,94.70
2019-05-10T07:55:29.902Z,93.80
2019-05-10T07:58:04.406Z,93.40
2019-05-10T08:00:28.462Z,93.90
2019-05-10T08:03:07.516Z,93.90
2019-05-10T08:05:29.188Z,93.50
2019-05-10T08:07:58.855Z,93.90
2019-05-10T08:10:29.068Z,94.20
2019-05-10T08:12:59.583Z,94.20
2019-05-10T08:15:30.574Z,94.20
2019-05-10T08:17:58.722Z,93.90
2019-05-10T08:20:41.467Z,93.30
2019-05-10T08:22:57.537Z,92.90
2019-05-10T08:25:29.169Z,91.80
2019-05-10T08:27:56.240Z,91.90
2019-05-10T08:30:42.753Z,91.30
2019-05-10T08:33:12.023Z,91.30
2019-05-10T08:35:45.571Z,90.10
2019-05-10T08:38:12.964Z,89.40
2019-05-10T08:40:42.850Z,88.90
2019-05-10T08:43:15.591Z,88.70
2019-05-10T08:45:45.186Z,87.70
2019-05-10T08:48:12.727Z,88.20
2019-05-10T08:50:53.400Z,86.70
2019-05-10T08:53:16.417Z,86.20
2019-05-10T08:55:43.245Z,87.10
2019-05-10T08:58:12.457Z,87.60
2019-05-10T09:00:53.857Z,85.40
2019-05-10T09:03:18.065Z,85.00
2019-05-10T09:05:43.272Z,85.80
2019-05-10T09:08:19.447Z,82.80
2019-05-10T09:10:42.221Z,80.90
2019-05-10T09:13:12.905Z,78.40
2019-05-10T09:15:51.529Z,76.80
2019-05-10T09:18:12.767Z,78.30
2019-05-10T09:20:42.306Z,78.70
2019-05-10T09:23:17.941Z,79.40
2019-05-10T09:25:42.617Z,79.40
2019-05-10T09:28:16.487Z,79.60
2019-05-10T09:30:56.370Z,79.60
2019-05-10T09:33:14.354Z,78.40
2019-05-10T09:35:47.015Z,77.10
2019-05-10T09:38:12.653Z,76.50
2019-05-10T09:40:50.550Z,76.50
2019-05-10T09:43:14.426Z,73.50
2019-05-10T09:45:42.470Z,74.10
2019-05-10T09:48:12.153Z,74.80
2019-05-10T09:50:46.346Z,74.20
2019-05-10T09:53:15.134Z,73.70
2019-05-10T09:55:45.530Z,73.20
2019-05-10T09:58:11.359Z,73.60
2019-05-10T10:00:39.962Z,73.40
2019-05-10T10:03:08.579Z,73.80
2019-05-10T10:05:39.744Z,74.90
2019-05-10T10:08:09.076Z,76.90
2019-05-10T10:10:37.518Z,78.60
2019-05-10T10:13:11.788Z,81.00
2019-05-10T10:15:37.238Z,82.80
2019-05-10T10:18:06.130Z,83.70
2019-05-10T10:20:36.075Z,85.40
2019-05-10T10:23:07.302Z,86.60
2019-05-10T10:25:40.691Z,86.90
2019-05-10T10:28:10.353Z,85.00
2019-05-10T10:30:37.298Z,85.20
2019-05-10T10:33:11.904Z,86.00
2019-05-10T10:35:37.904Z,86.80
2019-05-10T10:38:08.113Z,87.40
2019-05-10T10:40:44.120Z,85.30
2019-05-10T10:43:07.692Z,86.70
2019-05-10T10:45:37.658Z,87.60
2019-05-10T10:48:08.574Z,88.40
2019-05-10T10:50:36.745Z,90.00
2019-05-10T10:53:07.772Z,90.00
2019-05-10T10:55:39.458Z,91.00
2019-05-10T10:58:07.366Z,90.60
2019-05-10T11:00:38.816Z,90.30
2019-05-10T11:03:06.605Z,90.30
2019-05-10T11:05:35.133Z,90.20
2019-05-10T11:08:03.613Z,90.90
2019-05-10T11:10:32.662Z,91.20
2019-05-10T11:13:02.862Z,91.10
2019-05-10T11:15:35.824Z,90.80
2019-05-10T11:18:02.068Z,90.40
2019-05-10T11:20:31.787Z,90.20
2019-05-10T11:23:00.563Z,89.00
2019-05-10T11:25:29.113Z,89.80
2019-05-10T11:27:59.266Z,90.10
2019-05-10T11:30:27.732Z,90.60
2019-05-10T11:32:56.265Z,91.10
2019-05-10T11:35:30.999Z,91.30
2019-05-10T11:37:54.971Z,91.70
2019-05-10T11:40:29.818Z,91.80
2019-05-10T11:42:53.612Z,91.40
2019-05-10T11:45:26.099Z,91.70
2019-05-10T11:47:54.387Z,91.10
2019-05-10T11:50:31.524Z,90.60
2019-05-10T11:52:52.999Z,84.30
2019-05-10T11:58:02.050Z,81.00
2019-05-10T11:59:03.715Z,81.50
2019-05-10T12:00:28.375Z,70.60
2019-05-10T12:03:06.931Z,66.80
2019-05-10T12:05:26.375Z,64.80
2019-05-10T12:07:54.737Z,64.20
2019-05-10T12:10:25.690Z,72.00
2019-05-10T12:13:06.599Z,71.60
2019-05-10T12:15:25.517Z,62.30
2019-05-10T12:20:41.594Z,54.10
2019-05-10T12:22:53.961Z,63.40
2019-05-10T12:25:42.106Z,70.10
2019-05-10T12:26:31.279Z,55.30
2019-05-10T12:27:52.678Z,72.70
2019-05-10T12:30:21.870Z,76.90
2019-05-10T12:33:05.837Z,82.70
2019-05-10T12:35:21.297Z,79.70
2019-05-10T12:37:53.998Z,69.30
2019-05-10T12:40:24.260Z,60.70
2019-05-10T12:42:51.201Z,60.50
2019-05-10T12:45:22.900Z,66.00
2019-05-10T12:47:51.796Z,64.70
2019-05-10T12:50:21.264Z,60.00
2019-05-10T12:53:02.749Z,59.90
2019-05-10T12:55:19.972Z,64.50
2019-05-10T12:57:48.417Z,62.00
2019-05-10T13:00:17.230Z,64.80
2019-05-10T13:02:51.316Z,69.40
2019-05-10T13:05:17.493Z,71.90
2019-05-10T13:07:45.956Z,73.40
2019-05-10T13:10:18.536Z,70.50
2019-05-10T13:12:47.579Z,64.30
2019-05-10T13:15:16.546Z,58.70
2019-05-10T13:17:50.417Z,49.60
2019-05-10T13:20:15.735Z,44.80
2019-05-10T13:22:44.243Z,42.20
2019-05-10T13:25:13.532Z,43.30
2019-05-10T13:27:42.003Z,38.50
2019-05-10T13:30:10.917Z,36.40
2019-05-10T13:32:39.451Z,37.40
2019-05-10T13:35:08.712Z,40.80
2019-05-10T13:37:37.176Z,38.80
2019-05-10T13:40:08.050Z,37.30
2019-05-10T13:42:43.071Z,34.90
2019-05-10T13:45:07.644Z,32.90
2019-05-10T13:47:36.101Z,34.00
2019-05-10T13:50:08.566Z,35.50
2019-05-10T13:52:38.923Z,36.10
2019-05-10T13:55:07.449Z,34.90
2019-05-10T13:57:35.975Z,32.70
2019-05-10T14:00:07.541Z,33.20
2019-05-10T14:02:36.005Z,38.60
2019-05-10T14:05:06.012Z,38.60
2019-05-10T14:07:34.498Z,39.10
2019-05-10T14:10:05.942Z,40.10
2019-05-10T14:12:34.423Z,40.60
2019-05-10T14:15:08.320Z,41.90
2019-05-10T14:17:33.060Z,46.90
2019-05-10T14:20:01.538Z,50.60
2019-05-10T14:22:30.060Z,50.70
2019-05-10T14:24:59.164Z,47.60
2019-05-10T14:27:29.929Z,46.70
2019-05-10T14:29:58.204Z,46.30
2019-05-10T14:32:26.707Z,46.40
2019-05-10T14:34:55.234Z,43.90
2019-05-10T14:37:23.684Z,47.20
2019-05-10T14:39:52.210Z,45.10
2019-05-10T14:42:23.982Z,43.20
2019-05-10T14:44:50.846Z,43.10
2019-05-10T14:47:19.294Z,47.50
2019-05-10T14:49:48.718Z,48.10
2019-05-10T14:52:17.556Z,48.70
2019-05-10T14:54:49.921Z,48.20
2019-05-10T14:57:16.208Z,48.60
2019-05-10T14:59:44.657Z,44.90
2019-05-10T15:02:20.354Z,40.80
2019-05-10T15:04:45.042Z,38.70
2019-05-10T15:07:14.326Z,38.60
2019-05-10T15:09:43.628Z,40.30
2019-05-10T15:12:16.298Z,42.20
2019-05-10T15:14:42.263Z,44.10
2019-05-10T15:17:10.735Z,47.00
2019-05-10T15:19:39.178Z,46.60
2019-05-10T15:22:09.181Z,46.40
2019-05-10T15:24:37.672Z,41.70
2019-05-10T15:27:06.136Z,43.00
2019-05-10T15:29:34.598Z,42.30
2019-05-10T15:32:03.036Z,42.00
2019-05-10T15:34:31.495Z,42.80
2019-05-10T15:37:09.134Z,44.80
2019-05-10T15:39:31.316Z,43.50
2019-05-10T15:42:00.980Z,45.00
2019-05-10T15:44:31.386Z,48.20
2019-05-10T15:46:59.912Z,49.70
2019-05-10T15:49:28.351Z,49.60
2019-05-10T15:52:15.179Z,52.90
2019-05-10T15:54:27.048Z,55.00
2019-05-10T15:56:55.998Z,56.70
2019-05-10T15:59:24.716Z,57.40
2019-05-10T16:01:53.234Z,60.50
2019-05-10T16:04:21.749Z,73.60
2019-05-10T16:06:50.199Z,90.10
2019-05-10T16:09:19.335Z,92.20
2019-05-10T16:11:47.977Z,75.20
2019-05-10T16:14:16.440Z,72.60
2019-05-10T16:16:44.898Z,65.40
2019-05-10T16:19:18.521Z,60.40
2019-05-10T16:21:46.737Z,59.70
2019-05-10T16:24:13.801Z,58.30
2019-05-10T16:26:42.323Z,58.10
2019-05-10T16:29:10.817Z,56.70
2019-05-10T16:31:39.313Z,55.70
2019-05-10T16:34:07.840Z,54.10
2019-05-10T16:36:36.355Z,56.20
2019-05-10T16:39:06.817Z,59.50
2019-05-10T16:41:35.263Z,61.30
2019-05-10T16:44:03.847Z,54.00
2019-05-10T16:46:32.322Z,53.80
2019-05-10T16:49:00.825Z,56.00
2019-05-10T16:51:29.285Z,58.90
2019-05-10T16:53:57.746Z,55.00
2019-05-10T16:56:26.283Z,54.90
2019-05-10T16:58:55.181Z,56.40
2019-05-10T17:01:25.749Z,56.50
2019-05-10T17:04:00.056Z,66.90
2019-05-10T17:06:24.274Z,68.60
2019-05-10T17:08:52.854Z,71.30
2019-05-10T17:11:21.348Z,73.20
2019-05-10T17:13:49.891Z,75.40
2019-05-10T17:16:18.934Z,74.90
2019-05-10T17:18:55.402Z,74.10
2019-05-10T17:21:21.786Z,73.40
2019-05-10T17:23:50.245Z,73.60
2019-05-10T17:26:18.709Z,75.40
2019-05-10T17:28:47.205Z,78.30
2019-05-10T17:31:15.647Z,83.50
2019-05-10T17:33:44.325Z,85.40
2019-05-10T17:36:14.627Z,86.90
2019-05-10T17:38:47.315Z,86.70
2019-05-10T17:41:13.469Z,87.70
2019-05-10T17:43:41.932Z,87.20
2019-05-10T17:46:12.918Z,85.70
2019-05-10T17:48:46.465Z,88.50
2019-05-10T17:51:10.857Z,90.30
2019-05-10T17:53:39.379Z,90.10
2019-05-10T17:56:07.832Z,89.50
2019-05-10T17:58:36.292Z,88.80
2019-05-10T18:01:04.747Z,87.60
2019-05-10T18:03:33.300Z,88.60
2019-05-10T18:06:01.768Z,90.40
2019-05-10T18:08:30.226Z,90.10
2019-05-10T18:11:03.915Z,89.10
2019-05-10T18:13:28.884Z,89.50
2019-05-10T18:15:57.356Z,90.90
2019-05-10T18:18:25.964Z,91.40
2019-05-10T18:20:54.420Z,91.00
2019-05-10T18:23:23.106Z,91.00
2019-05-10T18:25:52.510Z,90.60
2019-05-10T18:28:22.083Z,91.00
2019-05-10T18:30:50.638Z,91.00
2019-05-10T18:33:19.084Z,90.70
2019-05-10T18:35:52.628Z,90.70
2019-05-10T18:38:17.725Z,90.60
2019-05-10T18:40:46.176Z,90.00
2019-05-10T18:43:14.648Z,87.90
2019-05-10T18:45:43.161Z,86.60
2019-05-10T18:48:11.626Z,85.80
2019-05-10T18:50:45.437Z,87.70
2019-05-10T18:53:10.361Z,88.80
2019-05-10T18:55:38.893Z,87.20
2019-05-10T18:58:07.412Z,90.30
2019-05-10T19:00:35.876Z,91.50
2019-05-10T19:03:04.394Z,92.70
2019-05-10T19:05:33.207Z,92.70
2019-05-10T19:08:05.427Z,92.40
2019-05-10T19:10:32.065Z,94.40
2019-05-10T19:13:03.904Z,94.00
2019-05-10T19:15:30.733Z,93.60
2019-05-10T19:17:59.237Z,94.30
2019-05-10T19:20:27.712Z,94.40
2019-05-10T19:22:56.237Z,94.20
2019-05-10T19:25:24.724Z,94.00
2019-05-10T19:27:53.249Z,94.00
2019-05-10T19:30:22.465Z,93.90
2019-05-10T19:32:56.139Z,93.50
2019-05-10T19:35:21.310Z,93.20
2019-05-10T19:37:49.823Z,92.70
2019-05-10T19:40:18.560Z,93.00
2019-05-10T19:42:49.431Z,93.00
2019-05-10T19:45:19.337Z,92.80
2019-05-10T19:47:49.995Z,92.70
2019-05-10T19:50:18.181Z,93.10
2019-05-10T19:52:46.717Z,93.50
2019-05-10T19:55:19.340Z,94.60
2019-05-10T19:57:49.487Z,95.30
2019-05-10T20:00:16.346Z,95.20
2019-05-10T20:02:44.785Z,94.80
2019-05-10T20:05:13.385Z,94.10
2019-05-10T20:07:45.835Z,94.30
2019-05-10T20:10:12.663Z,95.20
2019-05-10T20:12:41.200Z,95.00
2019-05-10T20:15:10.369Z,94.60
2019-05-10T20:17:39.237Z,94.60
2019-05-10T20:20:07.991Z,95.80
2019-05-10T20:22:37.336Z,95.20
2019-05-10T20:25:07.532Z,94.00
2019-05-10T20:27:36.041Z,94.30
2019-05-10T20:30:06.213Z,95.00
2019-05-10T20:32:34.697Z,94.00
2019-05-10T20:35:03.319Z,94.40
2019-05-10T20:37:31.850Z,94.60
2019-05-10T20:40:00.330Z,95.00
2019-05-10T20:42:28.859Z,94.70
2019-05-10T20:45:06.538Z,93.80
2019-05-10T20:47:27.537Z,94.00
2019-05-10T20:49:55.973Z,93.10
2019-05-10T20:52:24.450Z,93.40
2019-05-10T20:54:53.041Z,93.00
2019-05-10T20:57:21.631Z,92.90
2019-05-10T20:59:50.137Z,92.70
2019-05-10T21:02:18.585Z,92.80
2019-05-10T21:04:47.051Z,92.80
2019-05-10T21:07:15.517Z,93.50
2019-05-10T21:09:43.985Z,94.00
2019-05-10T21:12:12.437Z,94.50
2019-05-10T21:14:40.915Z,94.70
2019-05-10T21:17:09.431Z,94.80
2019-05-10T21:19:38.038Z,95.20
2019-05-10T21:22:06.602Z,95.30
2019-05-10T21:24:35.107Z,94.90
2019-05-10T21:27:03.681Z,94.80
2019-05-10T21:29:32.243Z,94.60
2019-05-10T21:32:00.690Z,94.60
2019-05-10T21:34:29.177Z,94.10
2019-05-10T21:36:57.623Z,93.90
2019-05-10T21:39:26.072Z,93.40
2019-05-10T21:41:54.536Z,92.70
2019-05-10T21:44:23.065Z,92.30
2019-05-10T21:46:53.647Z,92.30
2019-05-10T21:49:21.695Z,92.40
2019-05-10T21:51:50.152Z,92.70
2019-05-10T21:54:18.605Z,92.80
2019-05-10T21:56:47.065Z,92.90
2019-05-10T21:59:15.584Z,93.30
2019-05-10T22:01:44.062Z,93.30
2019-05-10T22:04:12.518Z,93.40
2019-05-10T22:06:40.976Z,92.90
2019-05-10T22:09:10.439Z,93.00
2019-05-10T22:11:39.021Z,93.10
2019-05-10T22:14:07.513Z,93.00
2019-05-10T22:16:35.960Z,93.10
2019-05-10T22:19:04.437Z,92.90
2019-05-10T22:21:32.980Z,92.60
2019-05-10T22:24:01.452Z,93.30
2019-05-10T22:26:29.917Z,93.70
2019-05-10T22:28:58.380Z,93.60
2019-05-10T22:31:26.921Z,94.10
2019-05-10T22:33:55.457Z,94.30
2019-05-10T22:36:23.924Z,94.00
2019-05-10T22:39:05.824Z,93.60
2019-05-10T22:41:22.546Z,93.50
2019-05-10T22:43:50.998Z,93.70
2019-05-10T22:46:19.443Z,93.70
2019-05-10T22:48:47.912Z,94.70
2019-05-10T22:51:16.372Z,95.70
2019-05-10T22:53:53.266Z,96.30
2019-05-10T22:56:14.996Z,96.40
2019-05-10T22:58:43.451Z,96.60
2019-05-10T23:01:11.904Z,96.80
2019-05-10T23:03:40.368Z,96.60
2019-05-10T23:06:08.905Z,96.70
2019-05-10T23:08:37.353Z,97.00
2019-05-10T23:11:05.821Z,96.90
2019-05-10T23:13:34.267Z,96.90
2019-05-10T23:16:02.829Z,96.80
2019-05-10T23:18:31.267Z,96.50
2019-05-10T23:20:59.717Z,96.50
2019-05-10T23:23:28.187Z,95.90
2019-05-10T23:25:56.628Z,95.70
2019-05-10T23:28:25.080Z,95.70
2019-05-10T23:30:53.545Z,95.70
2019-05-10T23:33:22.028Z,96.20
2019-05-10T23:35:50.479Z,96.50
2019-05-10T23:38:18.921Z,96.80
2019-05-10T23:40:47.388Z,96.50
2019-05-10T23:43:15.844Z,96.30
2019-05-10T23:45:44.300Z,96.60
2019-05-10T23:48:12.741Z,96.20
2019-05-10T23:50:41.205Z,96.40
2019-05-10T23:53:09.652Z,96.10
2019-05-10T23:55:38.124Z,95.90
2019-05-10T23:58:06.578Z,96.40
